Time;durP1;ratioP1;P1;durP2;ratioP2;P2;SDS_P1;SDS_P2;PMS_P1;PMS_P2;Temp;Humidity;BMP_temperature;BMP_pressure;BME280_temperature;BME280_humidity;BME280_pressure;Samples;Min_cycle;Max_cycle;Signal;HPM_P1;HPM_P2
2022/01/10 00:01:04;;;;;;;87.37;33.47;;;;;;;6.61;nan;-24001.47;5051565;28;20269;-75
2022/01/10 00:03:30;;;;;;;82.03;33.47;;;;;;;6.40;nan;-23995.63;5051768;28;20650;-74
2022/01/10 00:05:55;;;;;;;89.57;34.10;;;;;;;6.43;nan;-23996.50;5051696;28;20202;-74
2022/01/10 00:08:21;;;;;;;80.17;32.03;;;;;;;6.20;nan;-23989.97;5051757;28;20171;-75
2022/01/10 00:10:47;;;;;;;75.97;31.50;;;;;;;6.43;nan;-23996.50;5033736;28;20198;-75
2022/01/10 00:13:13;;;;;;;85.47;31.83;;;;;;;6.62;nan;-24001.88;5051655;28;20186;-75
2022/01/10 00:15:39;;;;;;;73.37;31.60;;;;;;;6.55;nan;-23999.75;5051881;28;20171;-74
2022/01/10 00:18:04;;;;;;;77.67;31.87;;;;;;;6.75;nan;-24005.44;5033595;28;20259;-74
2022/01/10 00:20:30;;;;;;;80.90;33.67;;;;;;;6.28;nan;-23992.22;5051686;28;20175;-75
2022/01/10 00:22:55;;;;;;;74.53;32.33;;;;;;;6.38;nan;-23995.06;5051664;28;20189;-74
2022/01/10 00:25:22;;;;;;;80.60;32.30;;;;;;;6.52;nan;-23998.91;5051642;28;20175;-75
2022/01/10 00:27:50;;;;;;;83.90;31.77;;;;;;;6.27;nan;-23991.81;5050980;28;20190;-74
2022/01/10 00:30:16;;;;;;;74.97;30.43;;;;;;;5.96;nan;-23983.13;5051551;28;20217;-75
2022/01/10 00:32:43;;;;;;;78.20;30.70;;;;;;;6.01;nan;-23984.69;5051246;28;20617;-74
2022/01/10 00:35:10;;;;;;;75.57;31.13;;;;;;;6.09;nan;-23986.97;5033471;28;20217;-74
2022/01/10 00:37:36;;;;;;;72.20;30.43;;;;;;;6.57;nan;-24000.31;5051471;28;20179;-74
2022/01/10 00:40:04;;;;;;;82.47;32.10;;;;;;;6.22;nan;-23990.53;5051291;28;20171;-75
2022/01/10 00:42:31;;;;;;;79.70;32.00;;;;;;;6.66;nan;-24002.88;5051176;28;20199;-74
2022/01/10 00:45:00;;;;;;;79.70;32.57;;;;;;;6.14;nan;-23988.41;5051236;28;20197;-75
2022/01/10 00:47:26;;;;;;;82.57;31.90;;;;;;;6.70;nan;-24004.00;5051690;28;20179;-75
2022/01/10 00:49:51;;;;;;;84.90;31.87;;;;;;;6.18;nan;-23989.53;5051119;28;20209;-75
2022/01/10 00:52:17;;;;;;;90.17;31.73;;;;;;;6.11;nan;-23987.53;5054441;28;20590;-74
2022/01/10 00:54:42;;;;;;;98.47;33.57;;;;;;;6.54;nan;-23999.63;5043607;28;20248;-75
2022/01/10 00:57:08;;;;;;;109.37;33.20;;;;;;;6.22;nan;-23990.66;5049990;28;20183;-74
2022/01/10 00:59:33;;;;;;;72.53;31.10;;;;;;;6.66;nan;-24003.00;5047889;28;20638;-74
2022/01/10 01:01:59;;;;;;;77.60;32.27;;;;;;;6.53;nan;-23999.19;5054975;28;20621;-75
2022/01/10 01:04:24;;;;;;;83.83;33.13;;;;;;;6.54;nan;-23999.63;5054466;28;20202;-75
2022/01/10 01:06:50;;;;;;;79.00;31.53;;;;;;;6.26;nan;-23991.53;5048574;28;20208;-74
2022/01/10 01:09:18;;;;;;;79.53;32.27;;;;;;;6.09;nan;-23986.97;5044945;28;20218;-75
2022/01/10 01:15:17;;;;;;;78.87;31.90;;;;;;;6.12;nan;-23987.81;5035051;28;20259;-75
2022/01/10 01:17:11;;;;;;;71.07;30.17;;;;;;;6.56;nan;-24000.19;5034105;28;20202;-73
2022/01/10 01:20:07;;;;;;;79.50;31.20;;;;;;;6.36;nan;-23994.34;5045067;28;20184;-73
2022/01/10 01:25:16;;;;;;;82.33;31.13;;;;;;;6.18;nan;-23989.53;5042271;28;20217;-73
2022/01/10 01:27:43;;;;;;;98.33;31.13;;;;;;;6.50;nan;-23998.34;5054244;28;20642;-74
2022/01/10 01:30:09;;;;;;;71.00;28.13;;;;;;;6.68;nan;-24003.44;5042084;28;20359;-74
2022/01/10 01:32:35;;;;;;;54.50;25.20;;;;;;;6.58;nan;-24000.59;5040897;28;20573;-74
2022/01/10 01:35:06;;;;;;;60.03;26.03;;;;;;;6.46;nan;-23997.34;5047704;28;20281;-74
2022/01/10 01:37:32;;;;;;;60.80;25.47;;;;;;;6.18;nan;-23989.38;5044238;28;20189;-73
2022/01/10 01:39:59;;;;;;;59.40;25.13;;;;;;;6.26;nan;-23991.53;5035841;28;20247;-73
2022/01/10 01:42:42;;;;;;;59.47;25.37;;;;;;;6.60;nan;-24001.31;5026282;28;20211;-74
2022/01/10 01:45:10;;;;;;;59.43;25.07;;;;;;;6.50;nan;-23998.47;5041830;28;20549;-74
2022/01/10 01:47:36;;;;;;;56.70;25.60;;;;;;;6.42;nan;-23996.06;5047167;28;20555;-74
2022/01/10 01:50:05;;;;;;;55.27;24.40;;;;;;;6.18;nan;-23989.53;5050729;28;20621;-75
2022/01/10 01:52:31;;;;;;;50.43;23.63;;;;;;;6.19;nan;-23989.81;5042235;28;20249;-74
2022/01/10 01:54:57;;;;;;;54.30;24.50;;;;;;;6.33;nan;-23993.50;5042291;28;20182;-74
2022/01/10 01:57:22;;;;;;;58.67;25.90;;;;;;;6.16;nan;-23988.97;5048811;28;20190;-74
2022/01/10 01:59:48;;;;;;;62.60;25.53;;;;;;;6.41;nan;-23995.78;5053687;28;20556;-74
2022/01/10 02:02:14;;;;;;;52.57;24.63;;;;;;;6.11;nan;-23987.53;5053192;28;20250;-74
2022/01/10 02:04:39;;;;;;;52.37;23.23;;;;;;;6.21;nan;-23990.25;5053838;28;20251;-73
2022/01/10 02:07:05;;;;;;;54.17;23.93;;;;;;;6.72;nan;-24004.56;5053828;28;20575;-74
2022/01/10 02:09:31;;;;;;;61.10;26.20;;;;;;;6.63;nan;-24002.03;5053461;28;20159;-74
2022/01/10 02:11:57;;;;;;;60.00;25.33;;;;;;;6.22;nan;-23990.66;5035691;28;20186;-74
2022/01/10 02:14:23;;;;;;;60.57;25.20;;;;;;;6.38;nan;-23995.06;5053365;28;20198;-74
2022/01/10 02:16:56;;;;;;;64.77;25.60;;;;;;;6.59;nan;-24000.88;5053323;28;20282;-74
2022/01/10 02:19:23;;;;;;;63.70;25.30;;;;;;;6.42;nan;-23996.22;5053756;28;20216;-73
2022/01/10 02:21:49;;;;;;;65.23;26.10;;;;;;;6.04;nan;-23985.56;5053270;28;20247;-73
2022/01/10 02:24:14;;;;;;;62.60;26.93;;;;;;;6.39;nan;-23995.34;5053484;28;20701;-73
2022/01/10 02:26:40;;;;;;;58.57;23.80;;;;;;;6.53;nan;-23999.31;5053398;28;20179;-73
2022/01/10 02:29:07;;;;;;;58.70;25.23;;;;;;;6.51;nan;-23998.75;5052803;28;20178;-73
2022/01/10 02:31:38;;;;;;;70.63;26.50;;;;;;;6.27;nan;-23991.94;5053040;28;20692;-73
2022/01/10 02:34:03;;;;;;;57.30;23.83;;;;;;;6.41;nan;-23995.91;5052771;28;20167;-73
2022/01/10 02:36:29;;;;;;;59.83;24.93;;;;;;;6.26;nan;-23991.66;5052978;28;20551;-74
2022/01/10 02:38:58;;;;;;;58.63;25.13;;;;;;;6.24;nan;-23990.94;5052884;28;20162;-74
2022/01/10 02:41:24;;;;;;;66.00;25.93;;;;;;;6.20;nan;-23990.09;5052629;28;20167;-73
2022/01/10 02:43:51;;;;;;;65.23;25.83;;;;;;;5.86;nan;-23980.44;5052771;28;20222;-73
2022/01/10 02:46:17;;;;;;;71.63;27.77;;;;;;;6.32;nan;-23993.22;5052807;28;20174;-74
2022/01/10 02:48:42;;;;;;;77.33;27.53;;;;;;;5.69;nan;-23975.59;5052380;28;20167;-73
2022/01/10 02:51:08;;;;;;;79.77;29.40;;;;;;;6.03;nan;-23985.28;5034656;28;20206;-74
2022/01/10 02:53:33;;;;;;;83.37;28.80;;;;;;;5.52;nan;-23970.78;5049084;28;20236;-73
2022/01/10 02:55:59;;;;;;;74.00;29.50;;;;;;;5.79;nan;-23978.59;5049585;28;20187;-73
2022/01/10 02:58:24;;;;;;;80.43;29.37;;;;;;;5.73;nan;-23976.75;5034513;28;20557;-74
2022/01/10 03:00:50;;;;;;;88.50;30.80;;;;;;;5.61;nan;-23973.34;5046149;28;20194;-73
2022/01/10 03:03:16;;;;;;;74.30;27.00;;;;;;;5.63;nan;-23973.91;5052408;28;20202;-73
2022/01/10 03:05:42;;;;;;;66.33;25.17;;;;;;;5.91;nan;-23981.72;5043843;28;20256;-74
2022/01/10 03:08:07;;;;;;;69.63;26.10;;;;;;;5.78;nan;-23978.16;5046804;28;20178;-74
2022/01/10 03:10:33;;;;;;;66.60;26.80;;;;;;;6.16;nan;-23988.97;5042652;28;20203;-75
2022/01/10 03:13:00;;;;;;;71.37;25.70;;;;;;;5.76;nan;-23977.75;5045902;28;20186;-74
2022/01/10 03:15:26;;;;;;;76.23;25.87;;;;;;;6.12;nan;-23987.81;5034303;28;20502;-73
2022/01/10 03:17:51;;;;;;;71.53;26.20;;;;;;;6.03;nan;-23985.28;5050188;28;20222;-73
2022/01/10 03:20:17;;;;;;;66.03;25.77;;;;;;;6.20;nan;-23990.09;5033999;28;20673;-73
2022/01/10 03:22:43;;;;;;;64.73;24.63;;;;;;;6.33;nan;-23993.50;5034120;28;20213;-73
2022/01/10 03:25:09;;;;;;;67.20;24.97;;;;;;;5.91;nan;-23981.88;5052347;28;20210;-73
2022/01/10 03:27:34;;;;;;;73.80;26.53;;;;;;;5.86;nan;-23980.44;5051728;28;20653;-73
2022/01/10 03:30:00;;;;;;;67.90;26.90;;;;;;;6.15;nan;-23988.53;5052117;28;20708;-74
2022/01/10 03:32:25;;;;;;;68.23;26.00;;;;;;;5.94;nan;-23982.56;5052190;28;20175;-74
2022/01/10 03:34:51;;;;;;;67.23;24.50;;;;;;;6.24;nan;-23990.94;5051931;28;20224;-74
2022/01/10 03:37:16;;;;;;;67.03;24.60;;;;;;;5.83;nan;-23979.59;5052438;28;20183;-74
2022/01/10 03:39:42;;;;;;;78.93;25.87;;;;;;;6.48;nan;-23997.75;5033855;28;20174;-73
2022/01/10 03:42:07;;;;;;;72.20;26.83;;;;;;;6.32;nan;-23993.38;5051803;28;20182;-74
2022/01/10 03:44:33;;;;;;;65.73;25.63;;;;;;;6.52;nan;-23999.03;5051995;28;20162;-73
2022/01/10 03:46:58;;;;;;;61.60;24.13;;;;;;;6.40;nan;-23995.50;5034134;28;20598;-74
2022/01/10 03:49:24;;;;;;;56.93;24.77;;;;;;;6.44;nan;-23996.78;5033903;28;20565;-74
2022/01/10 03:51:50;;;;;;;63.57;25.17;;;;;;;6.08;nan;-23986.69;5051286;28;20700;-74
2022/01/10 03:54:15;;;;;;;59.63;24.77;;;;;;;6.69;nan;-24003.72;5051688;28;20190;-74
2022/01/10 03:56:41;;;;;;;61.90;24.97;;;;;;;6.16;nan;-23988.97;5051695;28;20189;-74
2022/01/10 03:59:06;;;;;;;60.63;25.63;;;;;;;6.44;nan;-23996.78;5052003;28;20231;-74
2022/01/10 04:01:32;;;;;;;54.83;25.27;;;;;;;6.60;nan;-24001.19;5051216;28;20170;-74
2022/01/10 04:03:57;;;;;;;59.97;24.60;;;;;;;6.49;nan;-23998.19;5051478;28;20198;-74
2022/01/10 04:06:23;;;;;;;54.27;24.60;;;;;;;6.41;nan;-23995.78;5051303;28;20162;-74
2022/01/10 04:08:49;;;;;;;53.70;25.33;;;;;;;6.70;nan;-24004.00;5033575;28;20178;-74
2022/01/10 04:11:14;;;;;;;63.80;26.40;;;;;;;6.70;nan;-24004.00;5051573;28;20280;-74
2022/01/10 04:13:40;;;;;;;54.23;24.67;;;;;;;6.45;nan;-23996.91;5033824;28;20550;-74
2022/01/10 04:16:06;;;;;;;55.57;25.30;;;;;;;6.60;nan;-24001.19;5051573;28;20174;-74
2022/01/10 04:18:31;;;;;;;52.03;23.77;;;;;;;6.60;nan;-24001.19;5051393;28;20216;-73
2022/01/10 04:20:57;;;;;;;47.80;23.37;;;;;;;6.82;nan;-24007.41;5051237;28;20179;-75
2022/01/10 04:23:22;;;;;;;49.03;22.70;;;;;;;6.84;nan;-24007.84;5040167;28;20175;-75
2022/01/10 04:25:48;;;;;;;48.83;22.30;;;;;;;6.88;nan;-24009.13;5052033;28;20198;-74
2022/01/10 04:28:13;;;;;;;48.43;23.10;;;;;;;6.86;nan;-24008.56;5037459;28;20609;-74
2022/01/10 04:30:39;;;;;;;51.57;23.17;;;;;;;6.88;nan;-24009.13;5055321;28;20198;-74
2022/01/10 04:33:04;;;;;;;51.10;23.30;;;;;;;6.07;nan;-23986.25;5055686;28;20178;-74
2022/01/10 04:35:31;;;;;;;48.87;23.37;;;;;;;6.60;nan;-24001.19;5037400;28;20185;-74
2022/01/10 04:37:57;;;;;;;47.43;22.50;;;;;;;6.74;nan;-24005.16;5055046;28;20182;-73
2022/01/10 04:40:24;;;;;;;42.90;21.03;;;;;;;6.41;nan;-23995.91;5037707;28;20550;-74
2022/01/10 04:42:50;;;;;;;42.63;21.20;;;;;;;6.48;nan;-23997.75;5055105;28;20182;-74
2022/01/10 04:45:15;;;;;;;46.53;21.57;;;;;;;6.84;nan;-24007.84;5055187;28;20175;-73
2022/01/10 04:47:41;;;;;;;46.30;21.43;;;;;;;6.47;nan;-23997.47;5055149;28;20533;-74
2022/01/10 04:52:38;;;;;;;48.97;22.83;;;;;;;6.32;nan;-23993.22;5054827;28;20241;-74
2022/01/10 04:55:04;;;;;;;50.63;23.33;;;;;;;6.36;nan;-23994.50;5054781;28;20179;-73
2022/01/10 04:57:30;;;;;;;48.33;23.10;;;;;;;6.36;nan;-23994.50;5054659;28;20198;-74
2022/01/10 04:59:55;;;;;;;54.70;24.70;;;;;;;6.65;nan;-24002.72;5054686;28;20604;-74
2022/01/10 05:02:21;;;;;;;54.50;23.13;;;;;;;6.44;nan;-23996.78;5054700;28;20174;-74
2022/01/10 05:04:46;;;;;;;53.67;25.13;;;;;;;6.27;nan;-23991.81;5054648;28;20179;-74
2022/01/10 05:07:11;;;;;;;60.87;25.37;;;;;;;6.76;nan;-24005.56;5054345;28;20296;-74
2022/01/10 05:09:37;;;;;;;58.67;24.90;;;;;;;6.59;nan;-24000.88;5054195;28;20240;-74
2022/01/10 05:12:03;;;;;;;51.33;23.47;;;;;;;6.43;nan;-23996.50;5035921;28;20269;-74
2022/01/10 05:14:29;;;;;;;52.50;23.33;;;;;;;6.51;nan;-23998.63;5054109;28;20171;-74
2022/01/10 05:16:54;;;;;;;50.53;23.30;;;;;;;6.54;nan;-23999.63;5047674;28;20637;-75
2022/01/10 05:19:20;;;;;;;52.80;23.13;;;;;;;6.48;nan;-23997.75;5053863;28;20178;-73
2022/01/10 05:21:45;;;;;;;51.97;23.50;;;;;;;6.71;nan;-24004.28;5053352;28;20193;-74
2022/01/10 05:24:10;;;;;;;52.33;23.07;;;;;;;6.31;nan;-23992.94;5053621;28;20583;-74
2022/01/10 05:26:36;;;;;;;49.60;22.57;;;;;;;6.55;nan;-23999.75;5053475;28;20257;-74
2022/01/10 05:29:03;;;;;;;54.93;23.40;;;;;;;6.81;nan;-24007.13;5053945;28;20186;-76
2022/01/10 05:31:30;;;;;;;62.27;25.60;;;;;;;6.54;nan;-23999.47;5043792;28;20203;-74
2022/01/10 05:33:56;;;;;;;62.97;25.03;;;;;;;6.66;nan;-24003.00;5047455;28;20179;-75
2022/01/10 05:36:22;;;;;;;64.33;26.77;;;;;;;6.36;nan;-23994.34;5053281;28;20182;-75
2022/01/10 05:38:48;;;;;;;66.57;26.47;;;;;;;6.93;nan;-24010.53;5053800;28;20188;-74
2022/01/10 05:41:14;;;;;;;72.73;29.63;;;;;;;7.05;nan;-24013.81;5053863;28;20174;-75
2022/01/10 05:43:39;;;;;;;70.20;28.87;;;;;;;7.03;nan;-24013.38;5035621;28;20534;-74
2022/01/10 05:46:08;;;;;;;76.97;31.10;;;;;;;6.79;nan;-24006.56;5029101;28;20190;-75
2022/01/10 05:48:39;;;;;;;75.43;31.80;;;;;;;6.68;nan;-24003.44;5053906;28;20182;-74
2022/01/10 05:51:05;;;;;;;83.60;33.07;;;;;;;6.90;nan;-24009.69;5053479;28;20206;-76
2022/01/10 05:53:31;;;;;;;85.90;34.23;;;;;;;6.46;nan;-23997.19;5053663;28;20189;-75
2022/01/10 05:55:56;;;;;;;84.77;33.13;;;;;;;6.60;nan;-24001.31;5053697;28;20175;-74
2022/01/10 05:58:22;;;;;;;87.10;33.07;;;;;;;6.99;nan;-24012.09;5053256;28;20581;-74
2022/01/10 06:00:47;;;;;;;85.40;32.47;;;;;;;7.13;nan;-24016.06;5035268;28;20225;-75
2022/01/10 06:03:13;;;;;;;79.13;30.60;;;;;;;6.86;nan;-24008.56;5053700;28;20177;-75
2022/01/10 06:05:38;;;;;;;80.37;31.40;;;;;;;6.40;nan;-23995.63;5053584;28;20175;-74
2022/01/10 06:08:05;;;;;;;80.13;31.80;;;;;;;6.98;nan;-24011.94;5051398;28;20255;-73
2022/01/10 06:10:31;;;;;;;78.37;31.23;;;;;;;6.96;nan;-24011.38;5052920;28;20298;-74
2022/01/10 06:12:58;;;;;;;83.20;32.13;;;;;;;6.98;nan;-24011.94;5052921;28;20619;-74
2022/01/10 06:15:23;;;;;;;79.27;30.83;;;;;;;6.71;nan;-24004.28;5052628;28;20201;-74
2022/01/10 06:17:49;;;;;;;80.97;32.10;;;;;;;6.96;nan;-24011.25;5052103;28;20203;-73
2022/01/10 06:20:15;;;;;;;80.83;31.20;;;;;;;6.85;nan;-24008.25;5052394;28;20171;-72
2022/01/10 06:22:41;;;;;;;79.87;31.73;;;;;;;6.48;nan;-23997.75;5052410;28;20182;-74
2022/01/10 06:25:10;;;;;;;84.23;31.97;;;;;;;6.63;nan;-24002.16;5052354;28;20179;-74
2022/01/10 06:27:36;;;;;;;94.27;32.77;;;;;;;7.12;nan;-24015.78;5052467;28;20171;-73
2022/01/10 06:30:03;;;;;;;99.60;32.87;;;;;;;7.04;nan;-24013.66;5051672;28;20202;-74
2022/01/10 06:32:28;;;;;;;82.93;31.40;;;;;;;7.10;nan;-24015.22;5052290;28;20214;-74
2022/01/10 06:34:53;;;;;;;89.83;33.07;;;;;;;7.09;nan;-24014.94;5034386;28;20190;-74
2022/01/10 06:37:19;;;;;;;91.03;32.97;;;;;;;7.04;nan;-24013.66;5052509;28;20182;-73
2022/01/10 06:39:45;;;;;;;77.80;31.67;;;;;;;7.14;nan;-24016.22;5052340;28;20583;-75
2022/01/10 06:42:11;;;;;;;92.30;33.00;;;;;;;6.96;nan;-24011.38;5052250;28;20174;-74
2022/01/10 06:44:36;;;;;;;85.73;31.77;;;;;;;7.20;nan;-24017.91;5052221;28;20239;-74
2022/01/10 06:47:02;;;;;;;81.67;32.70;;;;;;;7.02;nan;-24013.09;5034001;28;20280;-74
2022/01/10 06:49:27;;;;;;;82.37;30.73;;;;;;;7.23;nan;-24018.75;5050865;28;20178;-73
2022/01/10 06:51:53;;;;;;;67.87;27.77;;;;;;;6.82;nan;-24007.41;5051741;28;20238;-74
2022/01/10 06:54:18;;;;;;;60.87;26.20;;;;;;;7.12;nan;-24015.66;5052077;28;20201;-73
2022/01/10 06:56:44;;;;;;;63.07;26.77;;;;;;;6.75;nan;-24005.44;5051870;28;20243;-73
2022/01/10 06:59:09;;;;;;;59.57;27.23;;;;;;;6.99;nan;-24012.25;5051441;28;20634;-73
2022/01/10 07:01:35;;;;;;;54.13;26.40;;;;;;;6.74;nan;-24005.16;5051306;28;20181;-74
2022/01/10 07:04:01;;;;;;;56.90;26.40;;;;;;;6.82;nan;-24007.41;5048947;28;20205;-73
2022/01/10 07:06:26;;;;;;;59.27;26.23;;;;;;;6.79;nan;-24006.56;5047125;28;20576;-73
2022/01/10 07:08:52;;;;;;;57.13;25.70;;;;;;;6.83;nan;-24007.69;5051640;28;20265;-73
2022/01/10 07:11:17;;;;;;;53.20;25.57;;;;;;;6.85;nan;-24008.25;5051574;28;20658;-73
2022/01/10 07:13:43;;;;;;;56.53;25.50;;;;;;;7.24;nan;-24019.19;5040872;28;20191;-74
2022/01/10 07:16:08;;;;;;;57.70;27.20;;;;;;;6.96;nan;-24011.25;5039006;28;20673;-73
2022/01/10 07:18:34;;;;;;;52.40;25.63;;;;;;;6.94;nan;-24010.69;5032015;28;20261;-73
2022/01/10 07:20:59;;;;;;;50.27;24.93;;;;;;;7.16;nan;-24016.78;5050545;28;20627;-74
2022/01/10 07:23:25;;;;;;;49.50;25.50;;;;;;;7.30;nan;-24020.75;5051109;28;20187;-74
2022/01/10 07:25:51;;;;;;;49.77;24.97;;;;;;;7.22;nan;-24018.63;5051229;28;20174;-74
2022/01/10 07:28:17;;;;;;;66.03;26.47;;;;;;;7.19;nan;-24017.63;5051867;28;20186;-74
2022/01/10 07:30:43;;;;;;;66.03;27.20;;;;;;;7.31;nan;-24021.03;5050762;28;20260;-74
2022/01/10 07:33:08;;;;;;;63.90;26.60;;;;;;;7.08;nan;-24014.78;5051118;28;20236;-75
2022/01/10 07:35:34;;;;;;;58.67;27.03;;;;;;;7.36;nan;-24022.59;5051266;28;20174;-75
2022/01/10 07:38:00;;;;;;;60.83;25.17;;;;;;;7.50;nan;-24026.56;5046145;28;20513;-74
2022/01/10 07:40:26;;;;;;;72.77;27.77;;;;;;;7.21;nan;-24018.34;5050994;28;20331;-75
2022/01/10 07:42:51;;;;;;;70.47;27.77;;;;;;;7.15;nan;-24016.50;5050897;28;20278;-76
2022/01/10 07:45:17;;;;;;;70.80;26.43;;;;;;;7.52;nan;-24027.13;5051260;28;20265;-75
2022/01/10 07:47:43;;;;;;;74.63;27.63;;;;;;;7.54;nan;-24027.56;5051379;28;20285;-75
2022/01/10 07:50:09;;;;;;;77.20;27.97;;;;;;;7.19;nan;-24017.63;5051131;28;20198;-73
2022/01/10 07:52:34;;;;;;;74.10;29.30;;;;;;;7.36;nan;-24022.59;5050829;28;20227;-75
2022/01/10 07:55:00;;;;;;;75.37;27.50;;;;;;;7.63;nan;-24030.09;5026653;28;20628;-76
2022/01/10 07:57:25;;;;;;;76.67;29.13;;;;;;;6.71;nan;-24004.28;5039082;28;20265;-72
2022/01/10 07:59:51;;;;;;;70.37;28.93;;;;;;;7.09;nan;-24015.06;5050121;28;20236;-73
2022/01/10 08:02:17;;;;;;;69.07;26.87;;;;;;;7.58;nan;-24028.53;5050054;28;20261;-74
2022/01/10 08:04:43;;;;;;;72.27;27.37;;;;;;;7.53;nan;-24027.41;5050082;28;20633;-74
2022/01/10 08:07:09;;;;;;;63.30;26.70;;;;;;;7.31;nan;-24021.16;5049874;28;20265;-74
2022/01/10 08:09:35;;;;;;;70.37;26.40;;;;;;;6.81;nan;-24007.00;5049754;28;20182;-74
2022/01/10 08:12:00;;;;;;;74.10;27.60;;;;;;;7.63;nan;-24029.97;5049347;28;20202;-73
2022/01/10 08:14:29;;;;;;;71.50;27.33;;;;;;;7.71;nan;-24032.38;5049102;28;20270;-74
2022/01/10 08:16:56;;;;;;;63.50;26.80;;;;;;;7.74;nan;-24033.22;5049358;28;20167;-74
2022/01/10 08:19:22;;;;;;;65.43;26.07;;;;;;;7.44;nan;-24024.72;5041287;28;20221;-74
2022/01/10 08:21:48;;;;;;;62.43;26.13;;;;;;;7.42;nan;-24024.16;5041481;28;20681;-75
2022/01/10 08:24:13;;;;;;;65.60;26.07;;;;;;;7.27;nan;-24019.91;5050240;28;20186;-73
2022/01/10 08:26:40;;;;;;;63.10;27.03;;;;;;;7.85;nan;-24036.19;5049960;28;20245;-74
2022/01/10 08:29:06;;;;;;;62.63;26.00;;;;;;;7.02;nan;-24013.09;5050463;28;20213;-73
2022/01/10 08:31:31;;;;;;;70.27;26.87;;;;;;;7.66;nan;-24030.81;5050340;28;20230;-74
2022/01/10 08:33:57;;;;;;;64.30;26.70;;;;;;;7.72;nan;-24032.50;5051253;28;20185;-74
2022/01/10 08:36:22;;;;;;;64.90;27.47;;;;;;;7.21;nan;-24018.19;5051436;28;20197;-73
2022/01/10 08:38:48;;;;;;;72.33;26.60;;;;;;;7.24;nan;-24019.19;5051384;28;20175;-73
2022/01/10 08:41:13;;;;;;;70.13;28.20;;;;;;;7.78;nan;-24034.22;5050777;28;20181;-74
2022/01/10 08:43:38;;;;;;;73.27;28.20;;;;;;;7.83;nan;-24035.63;5044311;28;20198;-73
2022/01/10 08:46:04;;;;;;;71.40;28.93;;;;;;;7.37;nan;-24022.72;5051273;28;20261;-73
2022/01/10 08:48:29;;;;;;;67.50;28.07;;;;;;;7.76;nan;-24033.78;5050932;28;20617;-74
2022/01/10 08:50:55;;;;;;;74.63;29.07;;;;;;;7.78;nan;-24034.34;5050905;28;20203;-73
2022/01/10 08:53:21;;;;;;;74.07;29.70;;;;;;;7.86;nan;-24036.47;5051436;28;20229;-74
2022/01/10 08:55:47;;;;;;;71.80;28.43;;;;;;;7.60;nan;-24029.09;5050802;28;20513;-73
2022/01/10 08:58:13;;;;;;;73.53;28.53;;;;;;;7.79;nan;-24034.50;5032379;28;20546;-74
2022/01/10 09:00:39;;;;;;;78.20;28.27;;;;;;;7.89;nan;-24037.31;5050675;28;20178;-74
2022/01/10 09:03:05;;;;;;;69.17;29.40;;;;;;;7.31;nan;-24021.16;5050728;28;20175;-74
2022/01/10 09:05:32;;;;;;;64.40;28.53;;;;;;;7.54;nan;-24027.69;5050916;28;20167;-74
2022/01/10 09:08:01;;;;;;;77.50;28.73;;;;;;;8.07;nan;-24042.28;5051186;28;20174;-74
2022/01/10 09:10:27;;;;;;;70.50;28.70;;;;;;;7.71;nan;-24032.22;5050465;28;20194;-73
2022/01/10 09:12:53;;;;;;;72.43;29.50;;;;;;;7.63;nan;-24029.97;5052600;28;20177;-73
2022/01/10 09:15:18;;;;;;;71.47;29.13;;;;;;;7.97;nan;-24039.72;5053816;28;20178;-73
2022/01/10 09:17:44;;;;;;;67.47;29.17;;;;;;;7.48;nan;-24025.84;5054381;28;20175;-73
2022/01/10 09:20:10;;;;;;;75.67;30.50;;;;;;;7.89;nan;-24037.47;5054230;28;20181;-73
2022/01/10 09:22:35;;;;;;;80.03;29.90;;;;;;;7.52;nan;-24027.13;5054526;28;20209;-73
2022/01/10 09:25:01;;;;;;;67.30;28.67;;;;;;;7.49;nan;-24026.28;5053742;28;20178;-73
2022/01/10 09:27:26;;;;;;;69.77;30.37;;;;;;;7.84;nan;-24036.06;5053902;28;20632;-74
2022/01/10 09:29:51;;;;;;;66.63;28.73;;;;;;;7.79;nan;-24034.63;5054375;28;20220;-73
2022/01/10 09:32:17;;;;;;;59.07;27.60;;;;;;;8.00;nan;-24040.59;5054179;28;20242;-73
2022/01/10 09:34:43;;;;;;;63.30;26.27;;;;;;;8.07;nan;-24042.28;5053987;28;20273;-73
2022/01/10 09:37:08;;;;;;;59.93;26.03;;;;;;;7.85;nan;-24036.19;5053555;28;20626;-78
2022/01/10 09:39:34;;;;;;;60.00;25.40;;;;;;;7.80;nan;-24034.78;5053315;28;20669;-73
2022/01/10 09:41:59;;;;;;;63.60;26.17;;;;;;;7.36;nan;-24022.44;5035692;28;20178;-72
2022/01/10 09:44:25;;;;;;;55.73;24.47;;;;;;;7.34;nan;-24022.03;5050946;28;20559;-73
2022/01/10 09:46:51;;;;;;;56.17;25.17;;;;;;;7.74;nan;-24033.06;5053361;28;20167;-72
2022/01/10 09:49:17;;;;;;;55.33;23.63;;;;;;;8.06;nan;-24042.00;5053272;28;20175;-73
2022/01/10 09:51:43;;;;;;;52.50;23.00;;;;;;;7.61;nan;-24029.41;5050347;28;20371;-73
2022/01/10 09:54:10;;;;;;;53.77;24.00;;;;;;;8.03;nan;-24041.16;5033251;28;20183;-73
2022/01/10 09:56:35;;;;;;;50.67;21.97;;;;;;;7.92;nan;-24038.31;5043472;28;20244;-73
2022/01/10 09:59:01;;;;;;;47.07;21.90;;;;;;;7.59;nan;-24028.97;5052489;28;20676;-74
2022/01/10 10:01:30;;;;;;;53.73;23.27;;;;;;;8.17;nan;-24045.25;5034582;28;20193;-73
2022/01/10 10:03:58;;;;;;;53.20;23.10;;;;;;;8.16;nan;-24044.84;5052948;28;20580;-73
2022/01/10 10:06:26;;;;;;;50.07;23.80;;;;;;;7.58;nan;-24028.69;5052390;28;20167;-73
2022/01/10 10:08:53;;;;;;;53.00;23.43;;;;;;;7.88;nan;-24037.03;5046303;28;20493;-73
2022/01/10 10:11:18;;;;;;;50.13;22.83;;;;;;;8.14;nan;-24044.28;5052504;28;20204;-73
2022/01/10 10:13:51;;;;;;;48.47;22.77;;;;;;;7.86;nan;-24036.63;5052791;28;20638;-73
2022/01/10 10:16:18;;;;;;;55.63;23.67;;;;;;;8.07;nan;-24042.44;5052395;28;20246;-74
2022/01/10 10:18:46;;;;;;;49.03;23.60;;;;;;;7.89;nan;-24037.47;5052456;28;20244;-74
2022/01/10 10:21:13;;;;;;;48.00;22.77;;;;;;;7.97;nan;-24039.72;5052482;28;20179;-74
2022/01/10 10:23:40;;;;;;;46.07;22.13;;;;;;;8.04;nan;-24041.56;5052200;28;20524;-73
2022/01/10 10:26:06;;;;;;;44.97;22.80;;;;;;;7.98;nan;-24040.03;5052208;28;20181;-74
2022/01/10 10:28:35;;;;;;;45.77;22.17;;;;;;;8.01;nan;-24040.72;5052489;28;20614;-74
2022/01/10 10:31:01;;;;;;;44.90;23.40;;;;;;;8.14;nan;-24044.28;5051963;28;20752;-73
2022/01/10 10:33:27;;;;;;;44.07;21.07;;;;;;;8.22;nan;-24046.53;5052583;28;20235;-74
2022/01/10 10:36:08;;;;;;;43.17;22.50;;;;;;;8.15;nan;-24044.69;5052049;28;20182;-74
2022/01/10 10:38:35;;;;;;;39.97;21.97;;;;;;;8.23;nan;-24046.97;5051511;28;20249;-73
2022/01/10 10:41:03;;;;;;;38.00;21.33;;;;;;;8.16;nan;-24044.84;5051127;28;20171;-74
2022/01/10 10:43:37;;;;;;;46.57;22.43;;;;;;;7.84;nan;-24035.91;5051443;28;20174;-73
2022/01/10 10:46:08;;;;;;;38.30;21.10;;;;;;;7.86;nan;-24036.63;5051471;28;20174;-73
2022/01/10 10:48:35;;;;;;;42.53;20.67;;;;;;;7.84;nan;-24036.06;5051660;28;20261;-72
2022/01/10 10:51:01;;;;;;;40.30;20.23;;;;;;;8.19;nan;-24045.69;5051403;28;20194;-73
2022/01/10 10:53:28;;;;;;;36.60;18.60;;;;;;;8.34;nan;-24050.06;5033831;28;20323;-72
2022/01/10 10:55:58;;;;;;;32.20;17.87;;;;;;;7.91;nan;-24037.88;5033348;28;20630;-72
2022/01/10 10:58:23;;;;;;;37.30;19.37;;;;;;;7.68;nan;-24031.53;5051414;28;20179;-72
2022/01/10 11:00:49;;;;;;;38.30;19.70;;;;;;;7.75;nan;-24033.50;5051415;28;20175;-73
2022/01/10 11:03:17;;;;;;;37.63;18.10;;;;;;;8.06;nan;-24042.00;5051327;28;20185;-75
2022/01/10 11:05:44;;;;;;;35.37;19.20;;;;;;;7.75;nan;-24033.38;5051556;28;20559;-75
2022/01/10 11:08:10;;;;;;;40.83;20.30;;;;;;;7.78;nan;-24034.22;5051529;28;20647;-74
2022/01/10 11:10:37;;;;;;;34.23;17.70;;;;;;;8.14;nan;-24044.41;5033195;28;20213;-73
2022/01/10 11:13:04;;;;;;;33.93;17.97;;;;;;;8.12;nan;-24043.69;5051548;28;20175;-73
2022/01/10 11:15:31;;;;;;;37.03;17.60;;;;;;;8.24;nan;-24047.25;5050763;28;20174;-75
2022/01/10 11:18:01;;;;;;;34.00;18.20;;;;;;;7.97;nan;-24039.59;5051382;28;20175;-73
2022/01/10 11:20:28;;;;;;;32.90;17.83;;;;;;;8.04;nan;-24041.44;5051211;28;20633;-74
2022/01/10 11:22:56;;;;;;;37.00;18.97;;;;;;;8.16;nan;-24044.84;5051230;28;20175;-74
2022/01/10 11:25:33;;;;;;;40.17;18.57;;;;;;;7.57;nan;-24028.41;5050893;28;20183;-74
2022/01/10 11:28:12;;;;;;;34.87;17.13;;;;;;;7.88;nan;-24037.19;5051271;28;20214;-74
2022/01/10 11:30:41;;;;;;;36.30;17.60;;;;;;;8.32;nan;-24049.38;5051225;28;20581;-73
2022/01/10 11:33:15;;;;;;;35.30;17.93;;;;;;;7.88;nan;-24037.19;5051064;28;20626;-73
2022/01/10 11:35:41;;;;;;;38.43;18.20;;;;;;;8.04;nan;-24041.44;5050625;28;20209;-74
2022/01/10 11:38:35;;;;;;;36.17;18.67;;;;;;;7.81;nan;-24035.22;5051220;28;20236;-73